createdAt,value
2018-06-09T00:02:21.362Z,93.90
2018-06-09T00:04:56.734Z,94.60
2018-06-09T00:07:31.896Z,94.30
2018-06-09T00:32:43.337Z,95.80
2018-06-09T00:35:18.555Z,94.70
2018-06-09T00:37:54.429Z,99.90
2018-06-09T00:40:30.571Z,99.90
2018-06-09T00:43:05.830Z,99.90
2018-06-09T00:45:40.904Z,99.60
2018-06-09T00:48:16.158Z,99.30
2018-06-09T00:57:47.646Z,98.90
2018-06-09T01:00:24.019Z,99.90
2018-06-09T01:02:59.485Z,99.90
2018-06-09T01:05:35.254Z,99.90
2018-06-09T01:08:10.373Z,99.90
2018-06-09T01:10:46.282Z,99.90
2018-06-09T01:13:21.865Z,99.90
2018-06-09T01:18:31.815Z,99.90
2018-06-09T01:21:06.851Z,99.90
2018-06-09T01:23:41.839Z,99.90
2018-06-09T01:26:18.154Z,99.90
2018-06-09T01:28:53.412Z,99.90
2018-06-09T01:31:28.545Z,99.90
2018-06-09T01:34:03.892Z,99.90
2018-06-09T01:36:39.373Z,99.90
2018-06-09T01:39:14.677Z,99.90
2018-06-09T01:44:24.823Z,99.90
2018-06-09T01:46:59.893Z,99.90
2018-06-09T01:49:35.117Z,99.90
2018-06-09T01:52:10.411Z,99.90
2018-06-09T01:54:45.409Z,99.90
2018-06-09T01:57:20.737Z,99.90
2018-06-09T01:59:55.882Z,99.90
2018-06-09T02:02:31.273Z,99.90
2018-06-09T02:05:06.867Z,99.90
2018-06-09T02:07:41.938Z,99.90
2018-06-09T02:10:18.129Z,99.90
2018-06-09T02:12:53.110Z,99.90
2018-06-09T02:15:28.579Z,99.90
2018-06-09T02:18:04.085Z,99.90
2018-06-09T02:43:15.780Z,99.90
2018-06-09T02:45:50.994Z,99.90
2018-06-09T02:48:26.367Z,99.90
2018-06-09T02:54:56.085Z,99.90
2018-06-09T02:57:31.832Z,99.90
2018-06-09T03:00:08.200Z,99.90
2018-06-09T03:02:43.513Z,99.90
2018-06-09T03:05:18.673Z,99.90
2018-06-09T03:07:53.995Z,99.90
2018-06-09T03:10:30.013Z,99.90
2018-06-09T03:13:05.126Z,99.90
2018-06-09T03:15:40.220Z,99.90
2018-06-09T03:18:15.160Z,99.90
2018-06-09T03:40:12.841Z,99.90
2018-06-09T03:42:48.352Z,99.90
2018-06-09T03:45:23.780Z,99.90
2018-06-09T03:47:59.325Z,99.90
2018-06-09T03:50:35.439Z,99.90
2018-06-09T03:53:10.472Z,99.90
2018-06-09T03:55:45.620Z,99.90
2018-06-09T03:58:20.739Z,99.90
2018-06-09T04:00:56.980Z,99.90
2018-06-09T04:03:32.102Z,99.90
2018-06-09T04:06:07.157Z,99.90
2018-06-09T04:08:42.184Z,99.90
2018-06-09T04:11:17.425Z,99.90
2018-06-09T04:13:52.485Z,99.90
2018-06-09T04:16:27.672Z,99.90
2018-06-09T04:19:02.749Z,99.90
2018-06-09T04:21:37.810Z,99.90
2018-06-09T04:24:12.905Z,99.90
2018-06-09T04:26:48.105Z,99.90
2018-06-09T04:29:23.200Z,99.90
2018-06-09T04:31:58.397Z,99.60
2018-06-09T04:34:33.345Z,98.70
2018-06-09T04:37:08.676Z,98.80
2018-06-09T04:39:43.931Z,99.60
2018-06-09T04:42:18.977Z,98.40
2018-06-09T04:44:54.277Z,96.20
2018-06-09T04:47:29.363Z,93.50
2018-06-09T04:50:05.125Z,92.80
2018-06-09T04:55:15.934Z,91.90
2018-06-09T04:57:51.112Z,91.10
2018-06-09T05:23:02.705Z,90.50
2018-06-09T05:25:38.774Z,89.40
2018-06-09T05:28:13.932Z,84.40
2018-06-09T05:30:50.179Z,81.40
2018-06-09T05:33:25.538Z,82.30
2018-06-09T05:36:00.636Z,83.90
2018-06-09T05:38:35.908Z,81.20
2018-06-09T05:41:10.927Z,82.80
2018-06-09T05:43:46.022Z,79.50
2018-06-09T05:46:21.112Z,78.10
2018-06-09T05:48:56.493Z,78.60
2018-06-09T05:51:31.661Z,76.70
2018-06-09T05:54:06.951Z,76.20
2018-06-09T05:56:42.118Z,76.60
2018-06-09T05:59:17.336Z,76.50
2018-06-09T06:01:52.459Z,76.00
2018-06-09T06:04:27.553Z,75.70
2018-06-09T06:07:02.599Z,72.10
2018-06-09T06:09:37.612Z,71.80
2018-06-09T06:12:12.605Z,72.00
2018-06-09T06:14:47.582Z,71.10
2018-06-09T06:17:22.692Z,69.90
2018-06-09T06:19:57.795Z,69.00
2018-06-09T06:22:32.891Z,70.40
2018-06-09T06:25:07.888Z,70.30
2018-06-09T06:27:43.076Z,68.10
2018-06-09T06:30:19.223Z,65.70
2018-06-09T06:32:54.331Z,66.40
2018-06-09T22:27:21.645Z,94.50
2018-06-09T22:29:56.855Z,93.00
2018-06-09T22:32:31.996Z,91.10
2018-06-09T22:35:07.059Z,90.10
